Time;durP1;ratioP1;P1;durP2;ratioP2;P2;SDS_P1;SDS_P2;PMS_P1;PMS_P2;Temp;Humidity;BMP_temperature;BMP_pressure;BME280_temperature;BME280_humidity;BME280_pressure;Samples;Min_cycle;Max_cycle;Signal;HPM_P1;HPM_P2
2021/12/31 00:00:20;;;;;;;16.25;11.50;;;;;;;;;;5070428;28;20036;-66
2021/12/31 00:02:45;;;;;;;15.93;9.98;;;;;;;;;;5070109;28;20479;-66
2021/12/31 00:05:11;;;;;;;17.38;10.52;;;;;;;;;;5070007;28;20189;-66
2021/12/31 00:07:37;;;;;;;17.60;9.57;;;;;;;;;;5070011;28;20029;-67
2021/12/31 00:10:03;;;;;;;16.52;10.43;;;;;;;;;;5070434;28;20411;-66
2021/12/31 00:12:30;;;;;;;18.58;10.65;;;;;;;;;;5071537;28;20029;-66
2021/12/31 00:14:56;;;;;;;14.65;9.50;;;;;;;;;;5073666;28;20272;-66
2021/12/31 00:17:22;;;;;;;18.15;9.68;;;;;;;;;;5089296;28;20036;-66
2021/12/31 00:19:49;;;;;;;15.95;10.13;;;;;;;;;;5073440;28;20024;-66
2021/12/31 00:24:49;;;;;;;16.23;9.45;;;;;;;;;;5073503;28;20099;-66
2021/12/31 00:27:14;;;;;;;16.27;9.82;;;;;;;;;;5073672;28;20456;-66
2021/12/31 00:29:40;;;;;;;15.05;9.80;;;;;;;;;;5073184;28;20163;-66
2021/12/31 00:32:06;;;;;;;18.17;9.95;;;;;;;;;;5073172;28;20025;-66
2021/12/31 00:34:31;;;;;;;14.02;9.38;;;;;;;;;;5073138;28;20028;-66
2021/12/31 00:36:57;;;;;;;16.45;8.60;;;;;;;;;;5072837;28;20075;-66
2021/12/31 00:39:22;;;;;;;20.73;10.00;;;;;;;;;;5073288;28;20020;-66
2021/12/31 00:41:47;;;;;;;16.92;9.90;;;;;;;;;;5073249;28;20048;-66
2021/12/31 00:44:13;;;;;;;15.00;8.88;;;;;;;;;;5072850;28;20052;-66
2021/12/31 00:46:39;;;;;;;13.52;8.70;;;;;;;;;;5072996;28;20063;-66
2021/12/31 00:49:06;;;;;;;14.10;8.73;;;;;;;;;;5073062;28;20029;-67
2021/12/31 00:51:32;;;;;;;19.23;9.73;;;;;;;;;;5072949;28;20031;-66
2021/12/31 00:53:57;;;;;;;16.30;8.63;;;;;;;;;;5072679;28;20029;-67
2021/12/31 00:56:23;;;;;;;17.95;8.00;;;;;;;;;;5072934;28;20377;-67
2021/12/31 00:58:48;;;;;;;13.90;8.00;;;;;;;;;;5073018;28;20020;-66
2021/12/31 01:01:19;;;;;;;15.02;7.60;;;;;;;;;;5072939;28;20066;-66
2021/12/31 01:03:45;;;;;;;16.70;7.85;;;;;;;;;;5072707;28;20477;-67
2021/12/31 01:06:10;;;;;;;19.55;8.98;;;;;;;;;;5072793;28;20056;-66
2021/12/31 01:08:36;;;;;;;17.30;8.27;;;;;;;;;;5072791;28;20103;-66
2021/12/31 01:11:03;;;;;;;17.15;7.78;;;;;;;;;;5072756;28;20120;-66
2021/12/31 01:13:37;;;;;;;29.27;9.57;;;;;;;;;;5072721;28;20086;-66
2021/12/31 01:16:04;;;;;;;23.83;8.40;;;;;;;;;;5072539;28;20028;-66
2021/12/31 01:21:15;;;;;;;29.42;8.40;;;;;;;;;;5072757;28;20024;-66
2021/12/31 01:23:40;;;;;;;33.90;8.95;;;;;;;;;;5072504;28;20060;-66
2021/12/31 01:26:06;;;;;;;30.60;9.20;;;;;;;;;;5072321;28;20106;-66
2021/12/31 01:28:31;;;;;;;44.17;10.10;;;;;;;;;;5072379;28;20024;-66
2021/12/31 01:30:57;;;;;;;41.15;10.63;;;;;;;;;;5072617;28;20109;-66
2021/12/31 01:33:22;;;;;;;31.52;9.43;;;;;;;;;;5072355;28;20081;-66
2021/12/31 01:35:51;;;;;;;29.50;9.45;;;;;;;;;;5072176;28;20033;-66
2021/12/31 01:38:16;;;;;;;40.22;10.75;;;;;;;;;;5072401;28;20051;-66
2021/12/31 01:40:42;;;;;;;51.90;11.35;;;;;;;;;;5072414;28;20025;-66
2021/12/31 01:43:08;;;;;;;57.45;11.18;;;;;;;;;;5072140;28;20052;-67
2021/12/31 01:45:43;;;;;;;31.00;11.05;;;;;;;;;;5072196;28;20422;-66
2021/12/31 01:48:21;;;;;;;59.67;10.48;;;;;;;;;;5072033;28;20028;-66
2021/12/31 01:50:47;;;;;;;108.85;10.40;;;;;;;;;;5072164;28;20070;-66
2021/12/31 01:53:13;;;;;;;37.10;10.63;;;;;;;;;;5072155;28;20033;-66
2021/12/31 01:55:39;;;;;;;27.60;9.85;;;;;;;;;;5071666;28;20032;-66
2021/12/31 01:58:05;;;;;;;53.00;10.95;;;;;;;;;;5071677;28;20021;-66
2021/12/31 02:00:31;;;;;;;64.38;10.65;;;;;;;;;;5071748;28;20450;-67
2021/12/31 02:02:58;;;;;;;60.15;9.98;;;;;;;;;;5071804;28;20028;-66
2021/12/31 02:05:24;;;;;;;46.13;8.80;;;;;;;;;;5071526;28;20039;-66
2021/12/31 02:07:49;;;;;;;38.70;9.30;;;;;;;;;;5071788;28;20028;-66
2021/12/31 02:10:15;;;;;;;58.03;9.10;;;;;;;;;;5071610;28;20024;-66
2021/12/31 02:12:46;;;;;;;29.02;8.38;;;;;;;;;;5071448;28;20060;-66
2021/12/31 02:15:16;;;;;;;43.88;8.73;;;;;;;;;;5071376;28;20028;-66
2021/12/31 02:17:44;;;;;;;36.83;8.40;;;;;;;;;;5071477;28;20055;-66
2021/12/31 02:20:10;;;;;;;43.33;8.70;;;;;;;;;;5071413;28;20032;-66
2021/12/31 02:22:42;;;;;;;49.13;8.32;;;;;;;;;;5071454;28;20032;-66
2021/12/31 02:25:08;;;;;;;41.80;7.45;;;;;;;;;;5071199;28;20587;-66
2021/12/31 02:27:38;;;;;;;36.40;7.30;;;;;;;;;;5071234;28;20270;-66
2021/12/31 02:30:07;;;;;;;39.55;6.45;;;;;;;;;;5071148;28;20062;-66
2021/12/31 02:32:32;;;;;;;29.98;6.82;;;;;;;;;;5071116;28;20024;-66
2021/12/31 02:34:58;;;;;;;31.23;6.30;;;;;;;;;;5070169;28;20050;-67
2021/12/31 02:37:23;;;;;;;19.40;6.88;;;;;;;;;;5071231;28;20172;-66
2021/12/31 02:39:48;;;;;;;24.02;7.22;;;;;;;;;;5070933;28;20121;-67
2021/12/31 02:42:14;;;;;;;25.55;6.75;;;;;;;;;;5071129;28;20025;-66
2021/12/31 02:44:40;;;;;;;44.08;7.45;;;;;;;;;;5070609;28;20100;-67
2021/12/31 02:47:07;;;;;;;25.67;6.95;;;;;;;;;;5070944;28;20028;-66
2021/12/31 02:49:38;;;;;;;169.88;8.70;;;;;;;;;;5052934;28;20033;-66
2021/12/31 02:52:04;;;;;;;79.82;8.13;;;;;;;;;;5070828;28;20025;-66
2021/12/31 02:54:37;;;;;;;159.85;9.15;;;;;;;;;;5070983;28;20028;-66
2021/12/31 02:57:05;;;;;;;101.25;7.00;;;;;;;;;;5070719;28;20099;-67
2021/12/31 02:59:31;;;;;;;101.75;6.80;;;;;;;;;;5070451;28;20038;-66
2021/12/31 03:01:57;;;;;;;68.50;6.60;;;;;;;;;;5071194;28;20024;-66
2021/12/31 03:04:24;;;;;;;44.90;6.55;;;;;;;;;;5070474;28;20020;-70
2021/12/31 03:06:52;;;;;;;38.58;6.63;;;;;;;;;;5070662;28;20059;-66
2021/12/31 03:09:23;;;;;;;42.10;5.88;;;;;;;;;;5070645;28;20028;-66
2021/12/31 03:11:52;;;;;;;65.20;6.13;;;;;;;;;;5070989;28;20051;-66
2021/12/31 03:14:19;;;;;;;50.15;5.85;;;;;;;;;;5070536;28;20021;-66
2021/12/31 03:16:46;;;;;;;25.15;5.80;;;;;;;;;;5070750;28;20058;-66
2021/12/31 03:19:12;;;;;;;46.75;6.15;;;;;;;;;;5070479;28;20028;-66
2021/12/31 03:21:38;;;;;;;25.73;6.40;;;;;;;;;;5052333;28;20412;-66
2021/12/31 03:24:04;;;;;;;30.08;5.65;;;;;;;;;;5070600;28;20533;-66
2021/12/31 03:26:29;;;;;;;31.95;5.57;;;;;;;;;;5070376;28;20028;-67
2021/12/31 03:28:55;;;;;;;25.50;5.57;;;;;;;;;;5070485;28;20046;-66
2021/12/31 03:31:20;;;;;;;24.90;5.70;;;;;;;;;;5070825;28;20063;-66
2021/12/31 03:33:45;;;;;;;18.40;5.50;;;;;;;;;;5070480;28;20023;-66
2021/12/31 03:36:11;;;;;;;31.08;6.70;;;;;;;;;;5070181;28;20047;-67
2021/12/31 03:38:36;;;;;;;33.35;6.07;;;;;;;;;;5070319;28;20490;-66
2021/12/31 03:41:02;;;;;;;36.72;6.38;;;;;;;;;;5070376;28;20046;-66
2021/12/31 03:43:27;;;;;;;58.70;5.93;;;;;;;;;;5070296;28;20416;-66
2021/12/31 03:45:53;;;;;;;39.63;6.18;;;;;;;;;;5070048;28;20031;-66
2021/12/31 03:48:20;;;;;;;25.38;5.30;;;;;;;;;;5073318;28;20062;-66
2021/12/31 03:50:46;;;;;;;24.60;5.30;;;;;;;;;;5074394;28;20036;-66
2021/12/31 03:53:11;;;;;;;14.18;4.97;;;;;;;;;;5056210;28;20025;-66
2021/12/31 03:55:37;;;;;;;21.50;4.90;;;;;;;;;;5073980;28;20028;-66
2021/12/31 03:58:02;;;;;;;17.20;4.40;;;;;;;;;;5074010;28;20028;-66
2021/12/31 04:00:29;;;;;;;24.10;5.20;;;;;;;;;;5074038;28;20376;-66
2021/12/31 04:02:55;;;;;;;14.05;4.80;;;;;;;;;;5074060;28;20020;-66
2021/12/31 04:05:25;;;;;;;17.33;4.82;;;;;;;;;;5073868;28;20017;-67
2021/12/31 04:07:52;;;;;;;12.40;5.00;;;;;;;;;;5074108;28;20496;-66
2021/12/31 04:10:18;;;;;;;8.40;4.55;;;;;;;;;;5073855;28;20341;-66
2021/12/31 04:12:43;;;;;;;16.67;5.15;;;;;;;;;;5073701;28;20055;-66
2021/12/31 04:15:09;;;;;;;10.27;5.03;;;;;;;;;;5073655;28;20056;-66
2021/12/31 04:17:35;;;;;;;14.65;5.10;;;;;;;;;;5073880;28;20082;-66
2021/12/31 04:20:00;;;;;;;15.73;5.40;;;;;;;;;;5073697;28;20492;-66
2021/12/31 04:22:28;;;;;;;16.00;6.18;;;;;;;;;;5073841;28;20025;-67
2021/12/31 04:24:54;;;;;;;12.85;4.85;;;;;;;;;;5055612;28;20021;-76
2021/12/31 04:27:20;;;;;;;15.90;5.35;;;;;;;;;;5073602;28;20396;-66
2021/12/31 04:29:51;;;;;;;26.05;5.55;;;;;;;;;;5073354;28;20029;-66
2021/12/31 04:32:20;;;;;;;;;;;;;;;;;;5074287;28;20070;-66
2021/12/31 04:34:46;;;;;;;9.52;5.30;;;;;;;;;;5073545;28;19913;-66
2021/12/31 04:37:12;;;;;;;13.48;5.55;;;;;;;;;;5072898;28;20415;-66
2021/12/31 04:39:37;;;;;;;22.40;5.38;;;;;;;;;;5073349;28;20352;-66
2021/12/31 04:42:03;;;;;;;15.63;4.95;;;;;;;;;;5073334;28;20056;-67
2021/12/31 04:44:29;;;;;;;12.70;5.45;;;;;;;;;;5073020;28;20043;-67
2021/12/31 04:46:54;;;;;;;12.27;4.82;;;;;;;;;;5072976;28;20024;-66
2021/12/31 04:49:20;;;;;;;11.75;4.70;;;;;;;;;;5073215;28;20063;-66
2021/12/31 04:51:45;;;;;;;13.15;5.30;;;;;;;;;;5073074;28;20024;-66
2021/12/31 04:54:16;;;;;;;7.88;4.65;;;;;;;;;;5073151;28;20146;-66
2021/12/31 04:56:43;;;;;;;10.88;5.10;;;;;;;;;;5072884;28;20086;-66
2021/12/31 04:59:09;;;;;;;11.52;4.68;;;;;;;;;;5072192;28;20028;-66
2021/12/31 05:01:35;;;;;;;8.25;4.88;;;;;;;;;;5073460;28;20021;-66
2021/12/31 05:04:00;;;;;;;7.55;4.55;;;;;;;;;;5072830;28;20024;-66
2021/12/31 05:06:26;;;;;;;7.82;4.50;;;;;;;;;;5072931;28;20146;-67
2021/12/31 05:08:51;;;;;;;8.75;4.47;;;;;;;;;;5072660;28;20103;-66
2021/12/31 05:11:17;;;;;;;8.23;4.65;;;;;;;;;;5054653;28;20111;-66
2021/12/31 05:13:42;;;;;;;7.55;4.63;;;;;;;;;;5072545;28;20402;-66
2021/12/31 05:16:08;;;;;;;7.93;4.63;;;;;;;;;;5072308;28;20498;-66
2021/12/31 05:18:33;;;;;;;9.55;4.72;;;;;;;;;;5072582;28;20285;-66
2021/12/31 05:20:58;;;;;;;7.20;4.07;;;;;;;;;;5072273;28;20543;-66
2021/12/31 05:23:24;;;;;;;7.88;4.35;;;;;;;;;;5072555;28;20523;-66
2021/12/31 05:25:49;;;;;;;7.25;4.28;;;;;;;;;;5072211;28;20453;-66
2021/12/31 05:28:15;;;;;;;7.50;4.18;;;;;;;;;;5072224;28;20017;-66
2021/12/31 05:30:41;;;;;;;5.95;3.95;;;;;;;;;;5072348;28;20395;-66
2021/12/31 05:33:06;;;;;;;8.15;4.00;;;;;;;;;;5072387;28;20028;-66
2021/12/31 05:35:32;;;;;;;7.45;3.88;;;;;;;;;;5071822;28;20036;-66
2021/12/31 05:37:57;;;;;;;6.15;3.90;;;;;;;;;;5072168;28;20225;-66
2021/12/31 05:40:23;;;;;;;7.22;4.40;;;;;;;;;;5072044;28;20434;-66
2021/12/31 05:42:49;;;;;;;6.18;4.00;;;;;;;;;;5072212;28;20020;-66
2021/12/31 05:45:15;;;;;;;7.65;4.40;;;;;;;;;;5071907;28;20033;-66
2021/12/31 05:47:40;;;;;;;6.90;4.57;;;;;;;;;;5053830;28;20033;-66
2021/12/31 05:50:17;;;;;;;9.20;5.00;;;;;;;;;;5072061;28;20029;-66
2021/12/31 05:52:43;;;;;;;13.75;6.22;;;;;;;;;;5071917;28;20028;-66
2021/12/31 05:55:09;;;;;;;21.10;8.48;;;;;;;;;;5071900;28;20029;-66
2021/12/31 05:57:34;;;;;;;28.73;10.00;;;;;;;;;;5071511;28;20109;-66
2021/12/31 05:59:59;;;;;;;17.80;8.27;;;;;;;;;;5071764;28;20021;-66
2021/12/31 06:02:25;;;;;;;17.25;8.60;;;;;;;;;;5071920;28;20020;-66
2021/12/31 06:04:50;;;;;;;27.45;8.00;;;;;;;;;;5071877;28;20024;-66
2021/12/31 06:07:16;;;;;;;12.38;6.90;;;;;;;;;;5071595;28;20024;-66
2021/12/31 06:09:41;;;;;;;12.30;6.72;;;;;;;;;;5070785;28;20420;-66
2021/12/31 06:12:07;;;;;;;15.38;6.00;;;;;;;;;;5071511;28;20027;-67
2021/12/31 06:14:33;;;;;;;21.45;5.70;;;;;;;;;;5071762;28;20024;-66
2021/12/31 06:17:06;;;;;;;19.52;5.70;;;;;;;;;;5071469;28;20016;-66
2021/12/31 06:19:31;;;;;;;9.27;5.50;;;;;;;;;;5071289;28;20085;-66
2021/12/31 06:21:58;;;;;;;13.82;5.60;;;;;;;;;;5071571;28;20033;-66
2021/12/31 06:24:23;;;;;;;10.50;5.38;;;;;;;;;;5053329;28;20024;-66
2021/12/31 06:26:49;;;;;;;12.95;5.35;;;;;;;;;;5071049;28;20442;-66
2021/12/31 06:29:14;;;;;;;9.43;5.55;;;;;;;;;;5071022;28;20093;-66
2021/12/31 06:31:40;;;;;;;9.10;5.00;;;;;;;;;;5071005;28;20028;-66
2021/12/31 06:34:05;;;;;;;9.02;5.00;;;;;;;;;;5071092;28;20032;-66
2021/12/31 06:36:31;;;;;;;9.52;5.20;;;;;;;;;;5070854;28;20068;-66
2021/12/31 06:38:58;;;;;;;9.23;5.10;;;;;;;;;;5071111;28;20505;-66
2021/12/31 06:41:23;;;;;;;9.10;4.57;;;;;;;;;;5070908;28;20395;-66
2021/12/31 06:43:49;;;;;;;7.80;4.90;;;;;;;;;;5052790;28;20024;-66
2021/12/31 06:46:14;;;;;;;7.88;4.40;;;;;;;;;;5070640;28;20154;-66
2021/12/31 06:48:40;;;;;;;9.38;4.55;;;;;;;;;;5070873;28;20113;-66
2021/12/31 06:51:05;;;;;;;7.25;4.53;;;;;;;;;;5070836;28;20028;-66
2021/12/31 06:53:31;;;;;;;8.27;4.72;;;;;;;;;;5070808;28;20021;-67
2021/12/31 06:55:56;;;;;;;8.85;4.80;;;;;;;;;;5070728;28;20507;-66
2021/12/31 06:58:22;;;;;;;10.18;5.03;;;;;;;;;;5070427;28;20024;-66
2021/12/31 07:00:47;;;;;;;9.07;5.20;;;;;;;;;;5070589;28;20387;-66
2021/12/31 07:03:13;;;;;;;9.13;4.65;;;;;;;;;;5070591;28;20434;-66
2021/12/31 07:05:43;;;;;;;7.97;5.13;;;;;;;;;;5070876;28;20025;-66
2021/12/31 07:08:10;;;;;;;7.87;4.83;;;;;;;;;;5070598;28;20196;-66
2021/12/31 07:10:35;;;;;;;7.85;4.63;;;;;;;;;;5070450;28;20023;-66
2021/12/31 07:13:10;;;;;;;12.80;5.90;;;;;;;;;;5070827;28;20029;-66
2021/12/31 07:15:48;;;;;;;9.05;5.60;;;;;;;;;;5070697;28;20075;-66
2021/12/31 07:18:14;;;;;;;17.83;5.38;;;;;;;;;;5070365;28;20024;-66
2021/12/31 07:20:40;;;;;;;24.08;5.53;;;;;;;;;;5070066;28;20527;-66
2021/12/31 07:23:07;;;;;;;13.73;6.35;;;;;;;;;;5070466;28;20032;-66
2021/12/31 07:25:34;;;;;;;13.98;6.47;;;;;;;;;;5070600;28;20032;-66
2021/12/31 07:28:00;;;;;;;15.32;6.60;;;;;;;;;;5052398;28;20051;-66
2021/12/31 07:30:26;;;;;;;25.58;6.50;;;;;;;;;;5070387;28;20464;-67
2021/12/31 07:32:51;;;;;;;22.85;6.53;;;;;;;;;;5070238;28;20070;-67
2021/12/31 07:35:16;;;;;;;20.35;6.35;;;;;;;;;;5070196;28;20024;-66
2021/12/31 07:37:42;;;;;;;18.98;6.80;;;;;;;;;;5070116;28;20035;-66
2021/12/31 07:40:10;;;;;;;18.23;6.57;;;;;;;;;;5070203;28;20020;-66
2021/12/31 07:42:36;;;;;;;24.55;6.65;;;;;;;;;;5070392;28;20021;-66
2021/12/31 07:45:02;;;;;;;18.00;6.88;;;;;;;;;;5070438;28;20035;-66
2021/12/31 07:47:28;;;;;;;18.77;7.30;;;;;;;;;;5070296;28;20028;-66
2021/12/31 07:49:53;;;;;;;25.95;7.07;;;;;;;;;;5070349;28;20033;-66
2021/12/31 07:52:19;;;;;;;32.92;7.40;;;;;;;;;;5070092;28;20119;-66
2021/12/31 07:54:44;;;;;;;27.35;7.22;;;;;;;;;;5070217;28;20043;-66
2021/12/31 07:57:10;;;;;;;26.10;6.72;;;;;;;;;;5069792;28;20339;-66
2021/12/31 07:59:35;;;;;;;25.30;7.65;;;;;;;;;;5069931;28;20029;-66
2021/12/31 08:02:00;;;;;;;19.83;7.47;;;;;;;;;;5070122;28;20063;-66
2021/12/31 08:04:26;;;;;;;30.60;8.65;;;;;;;;;;5070070;28;20558;-66
2021/12/31 08:06:51;;;;;;;31.00;8.30;;;;;;;;;;5069839;28;20032;-66
2021/12/31 08:09:17;;;;;;;39.58;10.77;;;;;;;;;;5070133;28;20024;-66
2021/12/31 08:11:42;;;;;;;82.10;35.17;;;;;;;;;;5069921;28;20025;-66
2021/12/31 08:14:08;;;;;;;193.85;71.57;;;;;;;;;;5069937;28;20021;-67
2021/12/31 08:16:33;;;;;;;126.18;43.13;;;;;;;;;;5069747;28;20028;-66
2021/12/31 08:18:59;;;;;;;34.42;16.45;;;;;;;;;;5069923;28;20461;-67
2021/12/31 08:21:24;;;;;;;28.70;9.45;;;;;;;;;;5069801;28;20067;-66
2021/12/31 08:23:50;;;;;;;28.98;8.80;;;;;;;;;;5069907;28;20032;-66
2021/12/31 08:26:15;;;;;;;29.70;8.23;;;;;;;;;;5070143;28;20032;-66
2021/12/31 08:28:41;;;;;;;17.63;7.28;;;;;;;;;;5069661;28;20071;-66
2021/12/31 08:31:07;;;;;;;29.15;7.07;;;;;;;;;;5069712;28;20438;-66
2021/12/31 08:33:32;;;;;;;55.47;17.88;;;;;;;;;;5071171;28;20029;-66
2021/12/31 08:35:58;;;;;;;43.40;11.82;;;;;;;;;;5073239;28;20056;-67
2021/12/31 08:38:24;;;;;;;28.02;8.85;;;;;;;;;;5073210;28;20033;-66
2021/12/31 08:40:50;;;;;;;17.35;8.38;;;;;;;;;;5073099;28;20038;-66
2021/12/31 08:43:15;;;;;;;17.13;8.27;;;;;;;;;;5073404;28;20380;-67
2021/12/31 08:45:41;;;;;;;34.70;16.67;;;;;;;;;;5073111;28;20056;-66
2021/12/31 08:48:06;;;;;;;28.42;14.10;;;;;;;;;;5073153;28;20432;-66
2021/12/31 08:50:34;;;;;;;25.80;12.38;;;;;;;;;;5073260;28;20467;-66
2021/12/31 08:53:00;;;;;;;15.07;8.18;;;;;;;;;;5073418;28;20048;-66
2021/12/31 08:55:25;;;;;;;14.63;8.25;;;;;;;;;;5073202;28;20098;-66
2021/12/31 08:57:51;;;;;;;18.88;10.07;;;;;;;;;;5072792;28;20033;-66
2021/12/31 09:00:17;;;;;;;24.15;11.52;;;;;;;;;;5072981;28;20379;-67
2021/12/31 09:02:45;;;;;;;23.95;14.55;;;;;;;;;;5072977;28;20040;-67
2021/12/31 09:05:11;;;;;;;19.50;11.13;;;;;;;;;;5072860;28;20059;-67
2021/12/31 09:07:37;;;;;;;15.60;9.60;;;;;;;;;;5072960;28;20452;-66
2021/12/31 09:10:03;;;;;;;15.88;8.40;;;;;;;;;;5072774;28;20025;-67
2021/12/31 09:12:29;;;;;;;17.17;9.07;;;;;;;;;;5072726;28;20028;-67
2021/12/31 09:14:58;;;;;;;40.00;8.57;;;;;;;;;;5072554;28;20032;-67
2021/12/31 09:17:23;;;;;;;35.42;8.68;;;;;;;;;;5072402;28;20067;-66
2021/12/31 09:19:49;;;;;;;45.55;9.25;;;;;;;;;;5072483;28;20060;-66
2021/12/31 09:22:15;;;;;;;41.70;8.68;;;;;;;;;;5072427;28;20232;-66
2021/12/31 09:24:41;;;;;;;119.40;9.13;;;;;;;;;;5072492;28;20031;-66
2021/12/31 09:27:07;;;;;;;33.92;9.43;;;;;;;;;;5072268;28;20028;-67
2021/12/31 09:29:32;;;;;;;61.97;8.90;;;;;;;;;;5072206;28;20032;-66
2021/12/31 09:31:58;;;;;;;49.78;9.70;;;;;;;;;;5072641;28;20032;-67
2021/12/31 09:34:23;;;;;;;43.42;10.48;;;;;;;;;;5072236;28;20024;-67
2021/12/31 09:36:48;;;;;;;82.80;10.60;;;;;;;;;;5071855;28;20090;-68
2021/12/31 09:39:14;;;;;;;139.98;11.32;;;;;;;;;;5053756;28;20028;-66
2021/12/31 09:41:41;;;;;;;203.90;13.85;;;;;;;;;;5071994;28;20036;-66
2021/12/31 09:44:07;;;;;;;22.83;13.05;;;;;;;;;;5071576;28;20029;-66
2021/12/31 09:46:34;;;;;;;39.13;13.30;;;;;;;;;;5071951;28;20028;-67
2021/12/31 09:48:59;;;;;;;40.92;14.38;;;;;;;;;;5071751;28;20153;-67
2021/12/31 09:51:25;;;;;;;25.60;13.40;;;;;;;;;;5071923;28;20066;-67
2021/12/31 09:53:52;;;;;;;23.33;13.23;;;;;;;;;;5072256;28;20032;-66
2021/12/31 09:56:18;;;;;;;25.52;13.35;;;;;;;;;;5071796;28;20503;-67
2021/12/31 09:58:43;;;;;;;40.15;13.45;;;;;;;;;;5071468;28;20021;-67
2021/12/31 10:01:10;;;;;;;29.77;13.48;;;;;;;;;;5072100;28;20028;-67
2021/12/31 10:03:37;;;;;;;27.88;14.07;;;;;;;;;;5071676;28;20384;-67
2021/12/31 10:06:08;;;;;;;32.85;15.05;;;;;;;;;;5071611;28;20063;-66
2021/12/31 10:08:42;;;;;;;;;;;;;;;;;;5071963;28;20025;-67
2021/12/31 10:11:10;;;;;;;32.83;12.80;;;;;;;;;;5071560;28;19912;-66
2021/12/31 10:13:41;;;;;;;22.55;12.88;;;;;;;;;;5053353;28;20028;-66
2021/12/31 10:16:24;;;;;;;25.50;13.30;;;;;;;;;;5071547;28;20103;-67
2021/12/31 10:18:50;;;;;;;24.10;13.05;;;;;;;;;;5071251;28;20377;-67
2021/12/31 10:21:19;;;;;;;22.95;13.43;;;;;;;;;;5071178;28;20161;-66
2021/12/31 10:23:46;;;;;;;23.50;14.30;;;;;;;;;;5071383;28;20439;-66
2021/12/31 10:26:14;;;;;;;23.35;13.02;;;;;;;;;;5071266;28;20095;-66
2021/12/31 10:28:52;;;;;;;21.27;12.75;;;;;;;;;;5071174;28;20077;-66
2021/12/31 10:31:17;;;;;;;21.63;13.65;;;;;;;;;;5071509;28;20056;-66
2021/12/31 10:33:45;;;;;;;19.27;12.20;;;;;;;;;;5070934;28;20459;-66
2021/12/31 10:36:37;;;;;;;21.55;14.10;;;;;;;;;;5070999;28;20067;-67
2021/12/31 10:39:27;;;;;;;27.85;15.30;;;;;;;;;;5071400;28;20052;-66
2021/12/31 10:42:05;;;;;;;25.90;15.48;;;;;;;;;;5071185;28;20036;-67
2021/12/31 10:44:51;;;;;;;23.40;14.90;;;;;;;;;;5070824;28;20051;-68
2021/12/31 10:47:42;;;;;;;25.25;15.57;;;;;;;;;;5070835;28;20269;-70
2021/12/31 10:50:20;;;;;;;23.17;15.27;;;;;;;;;;5063347;28;20040;-67
2021/12/31 10:53:12;;;;;;;20.95;13.32;;;;;;;;;;5070835;28;20033;-67
2021/12/31 10:55:40;;;;;;;20.15;13.55;;;;;;;;;;5070431;28;20134;-66
2021/12/31 10:58:12;;;;;;;20.33;13.68;;;;;;;;;;5070333;28;20024;-66
2021/12/31 11:00:44;;;;;;;18.23;12.75;;;;;;;;;;5070612;28;20054;-66
2021/12/31 11:03:10;;;;;;;23.08;14.48;;;;;;;;;;5070825;28;20024;-66
2021/12/31 11:05:37;;;;;;;17.75;12.45;;;;;;;;;;5070616;28;20100;-67
2021/12/31 11:08:13;;;;;;;16.55;11.07;;;;;;;;;;5070776;28;20035;-67
2021/12/31 11:10:40;;;;;;;19.77;12.32;;;;;;;;;;5070617;28;20047;-67
2021/12/31 11:13:14;;;;;;;18.50;12.15;;;;;;;;;;5070452;28;20539;-67
2021/12/31 11:15:42;;;;;;;17.40;10.80;;;;;;;;;;5070686;28;20498;-67
2021/12/31 11:18:08;;;;;;;17.17;11.25;;;;;;;;;;5070412;28;20480;-67
2021/12/31 11:20:34;;;;;;;21.52;11.48;;;;;;;;;;5070300;28;20202;-66
2021/12/31 11:23:00;;;;;;;17.30;10.82;;;;;;;;;;5070481;28;20024;-67
2021/12/31 11:25:29;;;;;;;17.02;11.60;;;;;;;;;;5070522;28;20422;-67
2021/12/31 11:27:56;;;;;;;18.77;12.50;;;;;;;;;;5070173;28;20031;-67
2021/12/31 11:30:30;;;;;;;19.52;12.73;;;;;;;;;;5070526;28;20024;-67
2021/12/31 11:32:57;;;;;;;19.65;13.18;;;;;;;;;;5070388;28;20121;-66
2021/12/31 11:35:35;;;;;;;23.05;13.15;;;;;;;;;;5070034;28;20056;-66
2021/12/31 11:38:04;;;;;;;27.50;14.35;;;;;;;;;;5070094;28;20047;-66
2021/12/31 11:40:36;;;;;;;26.17;14.18;;;;;;;;;;5070307;28;20060;-66
2021/12/31 11:43:22;;;;;;;25.40;14.30;;;;;;;;;;5070146;28;20060;-66
2021/12/31 11:46:15;;;;;;;23.33;14.13;;;;;;;;;;5070350;28;20245;-66
2021/12/31 11:48:43;;;;;;;23.70;14.23;;;;;;;;;;5070098;28;20074;-66
2021/12/31 11:51:10;;;;;;;24.05;15.27;;;;;;;;;;5070222;28;20021;-66
2021/12/31 11:54:00;;;;;;;18.23;11.48;;;;;;;;;;5070195;28;20024;-66
2021/12/31 11:56:45;;;;;;;16.57;10.43;;;;;;;;;;5070309;28;20032;-66
2021/12/31 11:59:16;;;;;;;12.25;8.70;;;;;;;;;;5051792;28;20050;-67
2021/12/31 12:01:50;;;;;;;9.32;6.28;;;;;;;;;;5070003;28;20082;-66
2021/12/31 12:04:38;;;;;;;8.38;5.93;;;;;;;;;;5070052;28;20401;-66
2021/12/31 12:07:10;;;;;;;10.75;7.07;;;;;;;;;;5052306;28;20028;-66
2021/12/31 12:09:35;;;;;;;11.40;7.40;;;;;;;;;;5073378;28;20032;-66
2021/12/31 12:12:13;;;;;;;11.05;6.75;;;;;;;;;;5074244;28;20029;-66
2021/12/31 12:14:53;;;;;;;9.85;6.60;;;;;;;;;;5073681;28;20035;-66
2021/12/31 12:17:30;;;;;;;13.18;8.23;;;;;;;;;;5073877;28;20056;-66
2021/12/31 12:20:06;;;;;;;11.63;8.00;;;;;;;;;;5073590;28;20032;-67
2021/12/31 12:22:38;;;;;;;13.18;8.13;;;;;;;;;;5073677;28;20020;-66
2021/12/31 12:25:07;;;;;;;12.98;7.75;;;;;;;;;;5073739;28;20452;-66
2021/12/31 12:27:33;;;;;;;12.18;7.82;;;;;;;;;;5073568;28;20021;-66
2021/12/31 12:30:03;;;;;;;11.98;8.23;;;;;;;;;;5073274;28;20321;-67
2021/12/31 12:35:28;;;;;;;13.13;8.63;;;;;;;;;;5039038;28;20049;-67
2021/12/31 12:38:12;;;;;;;11.77;7.13;;;;;;;;;;5073504;28;20483;-67
2021/12/31 12:40:55;;;;;;;12.77;8.65;;;;;;;;;;5055384;28;20025;-66
2021/12/31 12:43:24;;;;;;;11.52;8.07;;;;;;;;;;5073108;28;20475;-66
2021/12/31 12:46:01;;;;;;;14.40;8.40;;;;;;;;;;5073059;28;20031;-67
2021/12/31 12:48:33;;;;;;;15.60;8.73;;;;;;;;;;5073177;28;20024;-67
2021/12/31 12:50:58;;;;;;;12.65;7.55;;;;;;;;;;5073213;28;20049;-66
2021/12/31 12:53:29;;;;;;;14.13;8.60;;;;;;;;;;5073335;28;20094;-67
2021/12/31 12:56:04;;;;;;;13.57;9.68;;;;;;;;;;5073253;28;20089;-67
2021/12/31 12:58:29;;;;;;;16.50;9.85;;;;;;;;;;5072697;28;20104;-67
2021/12/31 13:00:56;;;;;;;12.75;8.38;;;;;;;;;;5054980;28;20515;-67
2021/12/31 13:03:24;;;;;;;15.73;10.00;;;;;;;;;;5072869;28;20051;-66
2021/12/31 13:06:07;;;;;;;12.98;7.70;;;;;;;;;;5072920;28;20518;-67
2021/12/31 13:08:33;;;;;;;16.20;9.65;;;;;;;;;;5072755;28;20029;-66
2021/12/31 13:11:00;;;;;;;13.50;8.48;;;;;;;;;;5072859;28;20040;-66
2021/12/31 13:13:29;;;;;;;19.45;10.48;;;;;;;;;;5072681;28;20100;-67
2021/12/31 13:15:55;;;;;;;15.02;8.15;;;;;;;;;;5072811;28;20021;-67
2021/12/31 13:18:26;;;;;;;13.63;8.80;;;;;;;;;;5072347;28;20123;-67
2021/12/31 13:21:04;;;;;;;15.20;9.55;;;;;;;;;;5072304;28;20047;-66
2021/12/31 13:23:30;;;;;;;14.93;9.68;;;;;;;;;;5073208;28;20099;-66
2021/12/31 13:25:56;;;;;;;12.63;7.85;;;;;;;;;;5072642;28;20016;-66
2021/12/31 13:28:25;;;;;;;13.80;9.00;;;;;;;;;;5072353;28;20029;-67
2021/12/31 13:31:10;;;;;;;15.85;9.05;;;;;;;;;;5054512;28;20408;-67
2021/12/31 13:33:46;;;;;;;11.52;7.40;;;;;;;;;;5072202;28;20037;-66
2021/12/31 13:36:14;;;;;;;15.23;8.90;;;;;;;;;;5072001;28;20059;-67
2021/12/31 13:38:55;;;;;;;12.80;9.40;;;;;;;;;;5072181;28;20515;-67
2021/12/31 13:41:21;;;;;;;26.45;16.50;;;;;;;;;;5054252;28;20064;-66
2021/12/31 13:43:53;;;;;;;23.73;13.10;;;;;;;;;;5072171;28;20186;-67
2021/12/31 13:46:27;;;;;;;16.23;9.02;;;;;;;;;;5071979;28;20166;-67
2021/12/31 13:49:07;;;;;;;16.40;10.13;;;;;;;;;;5072106;28;20047;-66
2021/12/31 13:51:35;;;;;;;20.38;10.27;;;;;;;;;;5071986;28;20476;-67
2021/12/31 13:54:01;;;;;;;15.48;9.70;;;;;;;;;;5072036;28;20504;-66
2021/12/31 13:56:44;;;;;;;16.95;10.75;;;;;;;;;;5072115;28;20017;-66
2021/12/31 13:59:27;;;;;;;17.00;10.25;;;;;;;;;;5071532;28;20097;-66
2021/12/31 14:02:20;;;;;;;14.70;9.25;;;;;;;;;;5071936;28;20372;-66
2021/12/31 14:04:54;;;;;;;15.95;10.82;;;;;;;;;;5071915;28;20078;-66
2021/12/31 14:08:00;;;;;;;17.05;11.25;;;;;;;;;;5071807;28;20036;-66
2021/12/31 14:10:31;;;;;;;19.75;11.43;;;;;;;;;;5070983;28;20169;-66
2021/12/31 14:13:08;;;;;;;22.50;12.48;;;;;;;;;;5071434;28;20066;-67
2021/12/31 14:15:36;;;;;;;20.63;12.70;;;;;;;;;;5071644;28;20518;-66
2021/12/31 14:18:04;;;;;;;24.00;12.63;;;;;;;;;;5071460;28;20116;-66
2021/12/31 14:20:38;;;;;;;19.83;12.77;;;;;;;;;;5071478;28;20021;-67
2021/12/31 14:23:04;;;;;;;14.23;9.10;;;;;;;;;;5071394;28;20017;-67
2021/12/31 14:25:32;;;;;;;16.33;9.40;;;;;;;;;;5071291;28;20028;-66
2021/12/31 14:27:59;;;;;;;22.27;13.02;;;;;;;;;;5071620;28;20025;-67
2021/12/31 14:30:27;;;;;;;19.23;11.98;;;;;;;;;;5070433;28;20108;-66
2021/12/31 14:32:53;;;;;;;20.13;12.32;;;;;;;;;;5071030;28;20111;-67
2021/12/31 14:35:27;;;;;;;24.73;13.30;;;;;;;;;;5071047;28;20023;-66
2021/12/31 14:37:52;;;;;;;23.30;14.35;;;;;;;;;;5071093;28;20020;-67
2021/12/31 14:40:20;;;;;;;21.50;13.95;;;;;;;;;;5070810;28;20024;-67
2021/12/31 14:42:47;;;;;;;29.23;14.93;;;;;;;;;;5070999;28;20032;-66